Time;durP1;ratioP1;P1;durP2;ratioP2;P2;SDS_P1;SDS_P2;PMS_P1;PMS_P2;Temp;Humidity;BMP_temperature;BMP_pressure;BME280_temperature;BME280_humidity;BME280_pressure;Samples;Min_cycle;Max_cycle;Signal;HPM_P1;HPM_P2
2021/10/18 00:01:04;;;;;;;;;;;14.80;93.30;;;;;;2075360;28;742;-56
2021/10/18 00:02:24;;;;;;;;;;;14.80;93.40;;;;;;2077379;28;1395;-58
2021/10/18 00:03:43;;;;;;;;;;;14.80;93.30;;;;;;2073929;28;1960;-56
2021/10/18 00:05:02;;;;;;;;;;;14.80;93.30;;;;;;2073936;28;719;-54
2021/10/18 00:06:21;;;;;;;;;;;14.80;93.30;;;;;;2064963;28;791;-58
2021/10/18 00:07:41;;;;;;;;;;;14.80;93.60;;;;;;2070829;28;702;-56
2021/10/18 00:09:04;;;;;;;;;;;14.80;93.30;;;;;;2065539;28;722;-56
2021/10/18 00:10:24;;;;;;;;;;;14.70;93.40;;;;;;2070581;28;811;-58
2021/10/18 00:11:43;;;;;;;;;;;14.80;93.30;;;;;;2073973;28;726;-55
2021/10/18 00:13:03;;;;;;;;;;;14.80;93.30;;;;;;2074027;28;1333;-57
2021/10/18 00:14:22;;;;;;;;;;;14.80;93.30;;;;;;2074208;28;714;-57
2021/10/18 00:15:41;;;;;;;;;;;14.80;93.30;;;;;;2073984;28;744;-57
2021/10/18 00:17:00;;;;;;;;;;;14.70;93.30;;;;;;2073316;28;733;-57
2021/10/18 00:18:19;;;;;;;;;;;14.80;93.40;;;;;;2065248;28;696;-56
2021/10/18 00:19:39;;;;;;;;;;;14.70;93.30;;;;;;2070318;28;773;-58
2021/10/18 00:20:58;;;;;;;;;;;14.70;93.70;;;;;;2074059;28;742;-57
2021/10/18 00:22:17;;;;;;;;;;;14.70;93.60;;;;;;2065432;28;723;-55
2021/10/18 00:23:36;;;;;;;;;;;14.70;93.40;;;;;;2061839;28;1976;-59
2021/10/18 00:24:55;;;;;;;;;;;14.70;93.40;;;;;;2066369;28;961;-55
2021/10/18 00:26:15;;;;;;;;;;;14.70;93.40;;;;;;2074402;28;1036;-57
2021/10/18 00:27:34;;;;;;;;;;;14.70;93.50;;;;;;2080115;28;1599;-57
2021/10/18 00:28:53;;;;;;;;;;;14.70;93.50;;;;;;2073547;28;699;-56
2021/10/18 00:30:13;;;;;;;;;;;14.70;93.50;;;;;;2078739;28;717;-57
2021/10/18 00:31:32;;;;;;;;;;;14.70;93.50;;;;;;2081809;28;697;-56
2021/10/18 00:32:51;;;;;;;;;;;14.70;93.50;;;;;;2082191;28;1735;-58
2021/10/18 00:34:10;;;;;;;;;;;14.70;93.40;;;;;;2081927;28;733;-55
2021/10/18 00:35:29;;;;;;;;;;;14.70;93.50;;;;;;2082216;28;737;-57
2021/10/18 00:36:49;;;;;;;;;;;14.70;93.60;;;;;;2081257;28;871;-57
2021/10/18 00:38:08;;;;;;;;;;;14.70;93.90;;;;;;2073122;28;749;-54
2021/10/18 00:39:27;;;;;;;;;;;14.70;94.00;;;;;;2078700;28;736;-56
2021/10/18 00:40:46;;;;;;;;;;;14.70;93.60;;;;;;2073143;28;763;-56
2021/10/18 00:42:05;;;;;;;;;;;14.70;93.60;;;;;;2078421;28;711;-55
2021/10/18 00:43:25;;;;;;;;;;;14.70;93.70;;;;;;2081900;28;1902;-55
2021/10/18 00:44:44;;;;;;;;;;;14.70;93.70;;;;;;2073302;28;873;-56
2021/10/18 00:46:03;;;;;;;;;;;14.70;93.70;;;;;;2078198;28;968;-56
2021/10/18 00:47:23;;;;;;;;;;;14.70;93.70;;;;;;2081820;28;718;-54
2021/10/18 00:48:42;;;;;;;;;;;14.70;93.70;;;;;;2081909;28;753;-56
2021/10/18 00:50:02;;;;;;;;;;;14.70;93.80;;;;;;2080680;28;742;-58
2021/10/18 00:51:21;;;;;;;;;;;14.70;93.70;;;;;;2073195;28;769;-57
2021/10/18 00:52:41;;;;;;;;;;;14.70;93.60;;;;;;2078379;28;733;-57
2021/10/18 00:54:00;;;;;;;;;;;14.70;93.70;;;;;;2072749;28;967;-54
2021/10/18 00:55:19;;;;;;;;;;;14.70;93.70;;;;;;2074280;28;1169;-59
2021/10/18 00:56:38;;;;;;;;;;;14.60;93.60;;;;;;2073817;28;1083;-56
2021/10/18 00:57:57;;;;;;;;;;;14.60;93.70;;;;;;2073800;28;712;-56
2021/10/18 00:59:17;;;;;;;;;;;14.60;93.70;;;;;;2064922;28;761;-56
2021/10/18 01:00:36;;;;;;;;;;;14.60;93.70;;;;;;2070221;28;742;-57
2021/10/18 01:01:55;;;;;;;;;;;14.60;93.80;;;;;;2070932;28;766;-59
2021/10/18 01:03:15;;;;;;;;;;;14.60;93.70;;;;;;2068881;28;1981;-59
2021/10/18 01:04:34;;;;;;;;;;;14.60;93.80;;;;;;2068432;28;687;-56
2021/10/18 01:05:53;;;;;;;;;;;14.60;93.80;;;;;;2066341;28;815;-58
2021/10/18 01:07:12;;;;;;;;;;;14.60;93.70;;;;;;2059030;28;931;-56
2021/10/18 01:08:31;;;;;;;;;;;14.60;93.70;;;;;;2069058;28;1311;-59
2021/10/18 01:09:51;;;;;;;;;;;14.60;93.80;;;;;;2070662;28;1248;-59
2021/10/18 01:11:10;;;;;;;;;;;14.60;93.80;;;;;;2062473;28;1186;-57
2021/10/18 01:12:29;;;;;;;;;;;14.60;93.90;;;;;;2067160;28;1419;-55
2021/10/18 01:13:48;;;;;;;;;;;14.60;94.10;;;;;;2069192;28;1303;-56
2021/10/18 01:15:08;;;;;;;;;;;14.60;93.80;;;;;;2072326;28;1196;-55
2021/10/18 01:16:27;;;;;;;;;;;14.60;94.10;;;;;;2071417;28;1266;-56
2021/10/18 01:17:46;;;;;;;;;;;14.60;94.20;;;;;;2073050;28;1236;-56
2021/10/18 01:19:12;;;;;;;;;;;14.60;93.80;;;;;;2072326;28;1495;-56
2021/10/18 01:20:32;;;;;;;;;;;14.60;93.90;;;;;;2072599;28;1279;-54
2021/10/18 01:21:54;;;;;;;;;;;14.60;93.70;;;;;;2071451;28;1045;-57
2021/10/18 01:23:13;;;;;;;;;;;14.60;93.90;;;;;;2064316;28;1422;-57
2021/10/18 01:24:33;;;;;;;;;;;14.70;93.80;;;;;;2064785;28;1113;-56
2021/10/18 01:25:52;;;;;;;;;;;14.60;93.80;;;;;;2063832;28;984;-57
2021/10/18 01:27:12;;;;;;;;;;;14.60;93.80;;;;;;2062666;28;1014;-57
2021/10/18 01:28:31;;;;;;;;;;;14.50;93.80;;;;;;2072736;28;1018;-58
2021/10/18 01:29:50;;;;;;;;;;;14.60;94.00;;;;;;2077710;28;1022;-58
2021/10/18 01:31:10;;;;;;;;;;;14.50;93.80;;;;;;2073421;28;1042;-57
2021/10/18 01:32:29;;;;;;;;;;;14.60;93.90;;;;;;2076642;28;1129;-57
2021/10/18 01:33:48;;;;;;;;;;;14.50;93.70;;;;;;2068238;28;1006;-55
2021/10/18 01:35:07;;;;;;;;;;;14.60;93.90;;;;;;2071086;28;986;-54
2021/10/18 01:36:27;;;;;;;;;;;14.50;93.70;;;;;;2069422;28;949;-58
2021/10/18 01:37:46;;;;;;;;;;;14.50;93.80;;;;;;2072940;28;1045;-58
2021/10/18 01:39:05;;;;;;;;;;;14.50;94.20;;;;;;2073115;28;911;-56
2021/10/18 01:40:25;;;;;;;;;;;14.50;94.30;;;;;;2073177;28;917;-58
2021/10/18 01:41:44;;;;;;;;;;;14.50;93.80;;;;;;2064746;28;1295;-56
2021/10/18 01:43:03;;;;;;;;;;;14.50;93.90;;;;;;2068148;28;1311;-55
2021/10/18 01:44:22;;;;;;;;;;;14.50;93.90;;;;;;2073648;28;1165;-56
2021/10/18 01:45:42;;;;;;;;;;;14.50;94.00;;;;;;2073036;28;1219;-58
2021/10/18 01:47:01;;;;;;;;;;;14.50;93.90;;;;;;2072764;28;1449;-58
2021/10/18 01:48:20;;;;;;;;;;;14.50;93.70;;;;;;2068341;28;1061;-57
2021/10/18 01:49:40;;;;;;;;;;;14.50;93.90;;;;;;2066526;28;1117;-57
2021/10/18 01:50:59;;;;;;;;;;;14.50;93.80;;;;;;2062400;28;1077;-54
2021/10/18 01:52:18;;;;;;;;;;;14.50;93.80;;;;;;2070479;28;1279;-58
2021/10/18 01:53:37;;;;;;;;;;;14.50;93.90;;;;;;2074946;28;1480;-57
2021/10/18 01:54:57;;;;;;;;;;;14.50;94.00;;;;;;2074100;28;881;-56
2021/10/18 01:56:16;;;;;;;;;;;14.50;93.80;;;;;;2073960;28;1148;-54
2021/10/18 01:57:35;;;;;;;;;;;14.50;93.90;;;;;;2072098;28;1081;-55
2021/10/18 01:58:54;;;;;;;;;;;14.50;94.20;;;;;;2064874;28;1624;-54
2021/10/18 02:00:13;;;;;;;;;;;14.50;93.90;;;;;;2058267;28;1170;-57
2021/10/18 02:01:32;;;;;;;;;;;14.50;94.00;;;;;;2067969;28;1212;-57
2021/10/18 02:02:52;;;;;;;;;;;14.50;94.00;;;;;;2073134;28;1394;-55
2021/10/18 02:04:11;;;;;;;;;;;14.50;93.90;;;;;;2066557;28;1973;-56
2021/10/18 02:05:30;;;;;;;;;;;14.50;94.00;;;;;;2070304;28;1058;-57
2021/10/18 02:06:49;;;;;;;;;;;14.50;94.00;;;;;;2075598;28;1197;-57
2021/10/18 02:08:09;;;;;;;;;;;14.50;93.90;;;;;;2075438;28;1143;-57
2021/10/18 02:09:28;;;;;;;;;;;14.50;93.90;;;;;;2073629;28;1355;-58
2021/10/18 02:10:47;;;;;;;;;;;14.50;94.00;;;;;;2073188;28;1131;-55
2021/10/18 02:12:06;;;;;;;;;;;14.50;93.90;;;;;;2070730;28;971;-58
2021/10/18 02:13:25;;;;;;;;;;;14.40;93.80;;;;;;2071985;28;1396;-55
2021/10/18 02:14:44;;;;;;;;;;;14.50;93.90;;;;;;2064057;28;953;-57
2021/10/18 02:16:04;;;;;;;;;;;14.50;94.00;;;;;;2069262;28;1027;-60
2021/10/18 02:17:22;;;;;;;;;;;14.40;93.90;;;;;;2064122;28;1005;-56
2021/10/18 02:18:47;;;;;;;;;;;14.40;94.00;;;;;;2070063;28;903;-58
2021/10/18 02:20:07;;;;;;;;;;;14.40;93.80;;;;;;2070982;28;864;-58
2021/10/18 02:21:25;;;;;;;;;;;14.40;93.90;;;;;;2066034;28;1061;-56
2021/10/18 02:22:45;;;;;;;;;;;14.40;94.00;;;;;;2069020;28;1384;-59
2021/10/18 02:24:04;;;;;;;;;;;14.40;94.00;;;;;;2071914;28;1902;-58
2021/10/18 02:25:23;;;;;;;;;;;14.40;94.00;;;;;;2063711;28;1004;-58
2021/10/18 02:26:42;;;;;;;;;;;14.40;94.00;;;;;;2063540;28;878;-57
2021/10/18 02:28:02;;;;;;;;;;;14.40;94.30;;;;;;2069020;28;965;-58
2021/10/18 02:29:21;;;;;;;;;;;14.40;94.30;;;;;;2072556;28;987;-59
2021/10/18 02:30:40;;;;;;;;;;;14.40;94.10;;;;;;2072368;28;1007;-56
2021/10/18 02:32:00;;;;;;;;;;;14.40;94.00;;;;;;2071658;28;860;-55
2021/10/18 02:33:19;;;;;;;;;;;14.40;94.00;;;;;;2072916;28;1518;-58
2021/10/18 02:34:38;;;;;;;;;;;14.40;93.90;;;;;;2072961;28;918;-57
2021/10/18 02:35:58;;;;;;;;;;;14.40;94.00;;;;;;2074378;28;1046;-56
2021/10/18 02:37:17;;;;;;;;;;;14.40;94.00;;;;;;2072717;28;941;-57
2021/10/18 02:38:38;;;;;;;;;;;14.40;94.00;;;;;;2072996;28;1014;-56
2021/10/18 02:39:57;;;;;;;;;;;14.40;93.90;;;;;;2070945;28;969;-57
2021/10/18 02:41:16;;;;;;;;;;;14.40;93.90;;;;;;2072070;28;852;-57
2021/10/18 02:42:35;;;;;;;;;;;14.40;94.00;;;;;;2072805;28;961;-58
2021/10/18 02:43:54;;;;;;;;;;;14.40;93.90;;;;;;2072776;28;1966;-59
2021/10/18 02:45:13;;;;;;;;;;;14.40;94.00;;;;;;2073038;28;1169;-55
2021/10/18 02:46:33;;;;;;;;;;;14.40;94.20;;;;;;2060634;28;1005;-57
2021/10/18 02:47:52;;;;;;;;;;;14.40;94.00;;;;;;2068498;28;889;-58
2021/10/18 02:49:11;;;;;;;;;;;14.40;94.00;;;;;;2063297;28;1291;-57
2021/10/18 02:50:31;;;;;;;;;;;14.40;94.00;;;;;;2068938;28;858;-57
2021/10/18 02:51:50;;;;;;;;;;;14.40;94.00;;;;;;2063351;28;1061;-57
2021/10/18 02:53:09;;;;;;;;;;;14.30;94.00;;;;;;2059668;28;1387;-58
2021/10/18 02:54:29;;;;;;;;;;;14.40;94.10;;;;;;2068123;28;1341;-56
2021/10/18 02:55:48;;;;;;;;;;;14.40;93.90;;;;;;2075012;28;1237;-58
2021/10/18 02:57:07;;;;;;;;;;;14.40;93.90;;;;;;2074732;28;987;-57
2021/10/18 02:58:27;;;;;;;;;;;14.30;93.90;;;;;;2064041;28;1224;-57
2021/10/18 02:59:46;;;;;;;;;;;14.30;93.90;;;;;;2072380;28;1135;-57
2021/10/18 03:01:05;;;;;;;;;;;14.40;94.00;;;;;;2075418;28;1311;-57
2021/10/18 03:02:24;;;;;;;;;;;14.30;93.90;;;;;;2072522;28;1217;-58
2021/10/18 03:03:43;;;;;;;;;;;14.30;94.10;;;;;;2073007;28;1969;-59
2021/10/18 03:05:03;;;;;;;;;;;14.30;94.00;;;;;;2064474;28;1342;-58
2021/10/18 03:06:22;;;;;;;;;;;14.30;94.00;;;;;;2069191;28;1304;-55
2021/10/18 03:07:41;;;;;;;;;;;14.30;94.00;;;;;;2077187;28;1019;-59
2021/10/18 03:09:00;;;;;;;;;;;14.30;94.00;;;;;;2064518;28;1005;-56
2021/10/18 03:10:20;;;;;;;;;;;14.30;94.10;;;;;;2063825;28;1114;-58
2021/10/18 03:11:39;;;;;;;;;;;14.30;94.10;;;;;;2062881;28;1058;-59
2021/10/18 03:12:59;;;;;;;;;;;14.30;94.50;;;;;;2061049;28;1913;-58
2021/10/18 03:14:18;;;;;;;;;;;14.30;94.20;;;;;;2068881;28;1234;-58
2021/10/18 03:15:37;;;;;;;;;;;14.30;94.20;;;;;;2073349;28;1015;-57
2021/10/18 03:16:57;;;;;;;;;;;14.30;94.20;;;;;;2073794;28;1081;-59
2021/10/18 03:18:16;;;;;;;;;;;14.30;94.30;;;;;;2072321;28;1116;-57
2021/10/18 03:19:35;;;;;;;;;;;14.30;94.30;;;;;;2073271;28;1059;-57
2021/10/18 03:20:56;;;;;;;;;;;14.30;94.60;;;;;;2072603;28;1098;-55
2021/10/18 03:22:15;;;;;;;;;;;14.30;94.20;;;;;;2064538;28;1131;-57
2021/10/18 03:23:34;;;;;;;;;;;14.30;94.20;;;;;;2064363;28;1906;-59
2021/10/18 03:24:54;;;;;;;;;;;14.30;94.10;;;;;;2061266;28;946;-59
2021/10/18 03:26:15;;;;;;;;;;;14.30;94.30;;;;;;2070821;28;970;-55
2021/10/18 03:27:34;;;;;;;;;;;14.30;94.40;;;;;;2071367;28;894;-56
2021/10/18 03:28:53;;;;;;;;;;;14.30;94.40;;;;;;2073286;28;1128;-56
2021/10/18 03:30:12;;;;;;;;;;;14.30;94.40;;;;;;2056603;28;1381;-57
2021/10/18 03:31:31;;;;;;;;;;;14.30;94.30;;;;;;2067131;28;1232;-58
2021/10/18 03:32:50;;;;;;;;;;;14.30;94.40;;;;;;2064404;28;1414;-54
2021/10/18 03:34:09;;;;;;;;;;;14.30;94.30;;;;;;2069586;28;964;-58
2021/10/18 03:35:29;;;;;;;;;;;14.30;94.60;;;;;;2073551;28;1029;-55
2021/10/18 03:36:48;;;;;;;;;;;14.30;94.30;;;;;;2072881;28;1275;-58
2021/10/18 03:38:07;;;;;;;;;;;14.30;94.20;;;;;;2078636;28;1121;-55
2021/10/18 03:39:26;;;;;;;;;;;14.30;94.20;;;;;;2072807;28;933;-55
2021/10/18 03:40:46;;;;;;;;;;;14.30;94.30;;;;;;2075305;28;1155;-57
2021/10/18 03:42:05;;;;;;;;;;;14.30;94.30;;;;;;2065131;28;1393;-53
2021/10/18 03:43:25;;;;;;;;;;;14.30;94.20;;;;;;2066933;28;1910;-58
2021/10/18 03:44:45;;;;;;;;;;;14.30;94.30;;;;;;2073553;28;1224;-53
2021/10/18 03:46:04;;;;;;;;;;;14.30;94.70;;;;;;2073905;28;1435;-59
2021/10/18 03:47:24;;;;;;;;;;;14.30;94.90;;;;;;2065643;28;1089;-58
2021/10/18 03:48:43;;;;;;;;;;;14.40;94.80;;;;;;2070223;28;1179;-59
2021/10/18 03:50:03;;;;;;;;;;;14.40;94.70;;;;;;2072669;28;1208;-58
2021/10/18 03:51:22;;;;;;;;;;;14.40;94.60;;;;;;2068723;28;1167;-56
2021/10/18 03:52:42;;;;;;;;;;;14.40;94.90;;;;;;2070995;28;1395;-57
2021/10/18 03:54:02;;;;;;;;;;;14.40;94.50;;;;;;2063462;28;1226;-57
2021/10/18 03:55:21;;;;;;;;;;;14.40;94.50;;;;;;2070972;28;1293;-58
2021/10/18 03:56:40;;;;;;;;;;;14.40;94.50;;;;;;2074610;28;1039;-58
2021/10/18 03:58:00;;;;;;;;;;;14.40;94.60;;;;;;2076719;28;842;-57
2021/10/18 03:59:19;;;;;;;;;;;14.30;94.40;;;;;;2073705;28;1338;-56
2021/10/18 04:00:38;;;;;;;;;;;14.40;94.50;;;;;;2076354;28;1206;-59
2021/10/18 04:01:58;;;;;;;;;;;14.40;94.50;;;;;;2074702;28;1285;-58
2021/10/18 04:03:17;;;;;;;;;;;14.30;94.60;;;;;;2067439;28;1503;-55
2021/10/18 04:04:36;;;;;;;;;;;14.30;94.50;;;;;;2073149;28;1462;-57
2021/10/18 04:05:56;;;;;;;;;;;14.30;94.70;;;;;;2065600;28;1424;-56
2021/10/18 04:07:15;;;;;;;;;;;14.30;95.00;;;;;;2067567;28;1305;-55
2021/10/18 04:08:37;;;;;;;;;;;14.30;94.90;;;;;;2066847;28;1196;-57
2021/10/18 04:09:56;;;;;;;;;;;14.30;94.70;;;;;;2071652;28;1242;-56
2021/10/18 04:11:16;;;;;;;;;;;14.30;94.70;;;;;;2076009;28;1145;-54
2021/10/18 04:12:35;;;;;;;;;;;14.30;94.70;;;;;;2062364;28;1216;-56
2021/10/18 04:13:54;;;;;;;;;;;14.30;94.70;;;;;;2065498;28;1107;-55
2021/10/18 04:15:13;;;;;;;;;;;14.30;94.60;;;;;;2073534;28;1335;-57
2021/10/18 04:16:33;;;;;;;;;;;14.30;94.70;;;;;;2053649;28;1252;-58
2021/10/18 04:17:52;;;;;;;;;;;14.30;94.70;;;;;;2068340;28;1213;-56
2021/10/18 04:19:12;;;;;;;;;;;14.30;94.70;;;;;;2077108;28;1091;-56
2021/10/18 04:20:31;;;;;;;;;;;14.30;94.80;;;;;;2073870;28;985;-54
2021/10/18 04:21:50;;;;;;;;;;;14.30;95.10;;;;;;2072921;28;858;-57
2021/10/18 04:23:09;;;;;;;;;;;14.30;95.10;;;;;;2075192;28;1396;-56
2021/10/18 04:24:28;;;;;;;;;;;14.30;95.00;;;;;;2074573;28;1224;-56
2021/10/18 04:25:48;;;;;;;;;;;14.30;94.80;;;;;;2073436;28;1179;-58
2021/10/18 04:27:07;;;;;;;;;;;14.30;94.80;;;;;;2072650;28;1064;-57
2021/10/18 04:28:27;;;;;;;;;;;14.20;94.70;;;;;;2073899;28;1391;-58
2021/10/18 04:29:46;;;;;;;;;;;14.30;94.80;;;;;;2056899;28;1103;-57
2021/10/18 04:31:05;;;;;;;;;;;14.30;94.70;;;;;;2069899;28;1276;-57
2021/10/18 04:32:25;;;;;;;;;;;14.30;94.80;;;;;;2072883;28;1358;-59
2021/10/18 04:33:44;;;;;;;;;;;14.30;94.80;;;;;;2073760;28;1480;-57
2021/10/18 04:35:03;;;;;;;;;;;14.30;94.80;;;;;;2064776;28;1141;-54
2021/10/18 04:36:23;;;;;;;;;;;14.30;94.70;;;;;;2069299;28;1242;-58
2021/10/18 04:37:42;;;;;;;;;;;14.30;94.70;;;;;;2067370;28;1364;-54
2021/10/18 04:39:01;;;;;;;;;;;14.40;95.10;;;;;;2070193;28;1351;-56
2021/10/18 04:40:21;;;;;;;;;;;14.50;95.20;;;;;;2063677;28;1296;-55
2021/10/18 04:41:40;;;;;;;;;;;14.50;95.10;;;;;;2061914;28;1337;-57
2021/10/18 04:42:59;;;;;;;;;;;14.60;94.70;;;;;;2067454;28;1442;-58
2021/10/18 04:44:19;;;;;;;;;;;14.60;94.30;;;;;;2070702;28;1914;-57
2021/10/18 04:45:38;;;;;;;;;;;14.60;94.10;;;;;;2066429;28;1466;-58
2021/10/18 04:46:58;;;;;;;;;;;14.70;94.00;;;;;;2069771;28;1294;-58
2021/10/18 04:48:17;;;;;;;;;;;14.70;93.80;;;;;;2063870;28;1244;-57
2021/10/18 04:49:36;;;;;;;;;;;14.80;93.60;;;;;;2069519;28;1153;-59
2021/10/18 04:50:55;;;;;;;;;;;14.80;93.30;;;;;;2072572;28;1235;-56
2021/10/18 04:52:14;;;;;;;;;;;14.90;93.10;;;;;;2064862;28;1414;-58
2021/10/18 04:53:34;;;;;;;;;;;14.90;92.80;;;;;;2070054;28;1514;-55
2021/10/18 04:54:53;;;;;;;;;;;14.90;92.70;;;;;;2075480;28;1247;-59
2021/10/18 04:56:12;;;;;;;;;;;15.00;92.80;;;;;;2071549;28;1474;-59
2021/10/18 04:57:31;;;;;;;;;;;15.00;92.70;;;;;;2070321;28;1474;-58
2021/10/18 04:58:50;;;;;;;;;;;15.00;92.20;;;;;;2070168;28;1206;-57
2021/10/18 05:00:10;;;;;;;;;;;15.00;92.20;;;;;;2064294;28;1153;-54
2021/10/18 05:01:29;;;;;;;;;;;15.00;92.10;;;;;;2070335;28;1394;-58
2021/10/18 05:02:48;;;;;;;;;;;15.00;92.10;;;;;;2073695;28;1408;-59
2021/10/18 05:04:07;;;;;;;;;;;15.00;92.10;;;;;;2072905;28;1980;-58
2021/10/18 05:05:26;;;;;;;;;;;15.00;92.10;;;;;;2073294;28;1106;-58
2021/10/18 05:06:45;;;;;;;;;;;15.00;92.30;;;;;;2072632;28;1100;-58
2021/10/18 05:08:06;;;;;;;;;;;15.00;92.60;;;;;;2065341;28;1328;-58
2021/10/18 05:09:25;;;;;;;;;;;15.00;92.90;;;;;;2063273;28;1393;-59
2021/10/18 05:10:44;;;;;;;;;;;15.00;93.40;;;;;;2070113;28;1583;-58
2021/10/18 05:12:03;;;;;;;;;;;15.00;93.70;;;;;;2072863;28;1577;-59
2021/10/18 05:13:22;;;;;;;;;;;15.00;93.90;;;;;;2065374;28;1542;-59
2021/10/18 05:14:41;;;;;;;;;;;15.10;94.10;;;;;;2064593;28;1217;-58
2021/10/18 05:16:01;;;;;;;;;;;15.10;93.90;;;;;;2062522;28;1272;-57
2021/10/18 05:17:20;;;;;;;;;;;15.10;93.70;;;;;;2073395;28;1080;-55
2021/10/18 05:18:39;;;;;;;;;;;15.20;93.70;;;;;;2073524;28;1339;-58
2021/10/18 05:19:58;;;;;;;;;;;15.20;93.50;;;;;;2073087;28;1447;-56
2021/10/18 05:21:17;;;;;;;;;;;15.30;93.20;;;;;;2073610;28;1119;-57
2021/10/18 05:22:36;;;;;;;;;;;15.30;92.90;;;;;;2073281;28;1294;-58
2021/10/18 05:23:56;;;;;;;;;;;15.40;92.60;;;;;;2062254;28;1973;-57
2021/10/18 05:25:15;;;;;;;;;;;15.40;92.30;;;;;;2070425;28;1222;-59
2021/10/18 05:26:34;;;;;;;;;;;15.50;92.00;;;;;;2071418;28;1387;-57
2021/10/18 05:27:54;;;;;;;;;;;15.60;91.70;;;;;;2073653;28;1352;-58
2021/10/18 05:29:13;;;;;;;;;;;15.70;91.40;;;;;;2056992;28;1198;-57
2021/10/18 05:30:32;;;;;;;;;;;15.70;91.00;;;;;;2059425;28;1406;-59
2021/10/18 05:31:51;;;;;;;;;;;15.80;90.70;;;;;;2069771;28;1453;-58
2021/10/18 05:33:10;;;;;;;;;;;15.80;90.50;;;;;;2073402;28;1394;-58
2021/10/18 05:34:29;;;;;;;;;;;15.90;90.20;;;;;;2074134;28;1243;-58
2021/10/18 05:35:48;;;;;;;;;;;15.90;90.00;;;;;;2065530;28;1282;-57
2021/10/18 05:37:08;;;;;;;;;;;15.90;89.70;;;;;;2071589;28;1352;-57
2021/10/18 05:38:27;;;;;;;;;;;16.00;89.70;;;;;;2074473;28;1208;-57
2021/10/18 05:39:46;;;;;;;;;;;16.00;89.20;;;;;;2065421;28;1231;-58
2021/10/18 05:41:07;;;;;;;;;;;16.00;88.80;;;;;;2069830;28;1523;-57
2021/10/18 05:42:27;;;;;;;;;;;16.10;88.60;;;;;;2074329;28;1152;-58
2021/10/18 05:43:46;;;;;;;;;;;16.10;88.10;;;;;;2074017;28;1981;-58
2021/10/18 05:45:06;;;;;;;;;;;16.10;88.00;;;;;;2074534;28;1414;-56
2021/10/18 05:46:25;;;;;;;;;;;16.10;87.70;;;;;;2058792;28;1310;-58
2021/10/18 05:47:57;;;;;;;;;;;16.20;87.50;;;;;;2062420;28;1374;-58
2021/10/18 05:49:16;;;;;;;;;;;16.20;87.10;;;;;;2066381;28;1247;-60
2021/10/18 05:50:37;;;;;;;;;;;16.30;87.00;;;;;;2066157;28;1237;-57
2021/10/18 05:51:56;;;;;;;;;;;16.20;86.60;;;;;;2070373;28;1134;-58
2021/10/18 05:53:15;;;;;;;;;;;16.30;86.60;;;;;;2074870;28;1420;-56
2021/10/18 05:54:35;;;;;;;;;;;16.30;86.50;;;;;;2065178;28;1003;-58
2021/10/18 05:55:54;;;;;;;;;;;16.30;86.40;;;;;;2069964;28;985;-57
2021/10/18 05:57:13;;;;;;;;;;;16.30;86.50;;;;;;2074406;28;825;-58
2021/10/18 05:58:33;;;;;;;;;;;16.30;86.30;;;;;;2074028;28;979;-56
2021/10/18 05:59:52;;;;;;;;;;;16.30;86.30;;;;;;2074633;28;1079;-58
2021/10/18 06:01:11;;;;;;;;;;;16.30;86.20;;;;;;2074611;28;1100;-59
2021/10/18 06:02:30;;;;;;;;;;;16.30;86.20;;;;;;2063047;28;981;-57
2021/10/18 06:03:50;;;;;;;;;;;16.30;86.30;;;;;;2071278;28;1906;-56
2021/10/18 06:05:09;;;;;;;;;;;16.30;86.40;;;;;;2074331;28;979;-57
2021/10/18 06:06:31;;;;;;;;;;;16.30;86.50;;;;;;2072676;28;1016;-56
2021/10/18 06:07:50;;;;;;;;;;;16.20;86.60;;;;;;2063743;28;964;-59
2021/10/18 06:09:10;;;;;;;;;;;16.20;86.70;;;;;;2073346;28;866;-57
2021/10/18 06:10:29;;;;;;;;;;;16.20;86.90;;;;;;2075088;28;1179;-59
2021/10/18 06:11:48;;;;;;;;;;;16.20;86.90;;;;;;2071993;28;875;-58
2021/10/18 06:13:08;;;;;;;;;;;16.20;87.20;;;;;;2074693;28;1443;-56
2021/10/18 06:14:27;;;;;;;;;;;16.20;88.20;;;;;;2075749;28;972;-57
2021/10/18 06:15:47;;;;;;;;;;;16.20;88.40;;;;;;2076246;28;902;-57
2021/10/18 06:17:06;;;;;;;;;;;16.30;88.90;;;;;;2065821;28;939;-57
2021/10/18 06:18:25;;;;;;;;;;;16.30;89.20;;;;;;2069806;28;1015;-58
2021/10/18 06:19:44;;;;;;;;;;;16.30;88.90;;;;;;2075843;28;996;-57
2021/10/18 06:21:03;;;;;;;;;;;16.30;88.80;;;;;;2074544;28;875;-57
2021/10/18 06:22:22;;;;;;;;;;;16.20;88.70;;;;;;2063393;28;945;-57
2021/10/18 06:23:43;;;;;;;;;;;16.20;89.00;;;;;;2077795;28;1890;-59
2021/10/18 06:25:02;;;;;;;;;;;16.30;90.00;;;;;;2057593;28;1339;-58
2021/10/18 06:26:21;;;;;;;;;;;16.20;89.20;;;;;;2069042;28;1183;-60
2021/10/18 06:27:41;;;;;;;;;;;16.30;89.50;;;;;;2064197;28;1256;-57
2021/10/18 06:29:00;;;;;;;;;;;16.30;89.50;;;;;;2067926;28;1245;-55
2021/10/18 06:30:19;;;;;;;;;;;16.30;89.30;;;;;;2061553;28;1293;-55
2021/10/18 06:31:39;;;;;;;;;;;16.30;89.20;;;;;;2069200;28;1204;-57
2021/10/18 06:32:58;;;;;;;;;;;16.40;89.10;;;;;;2062372;28;1388;-56
2021/10/18 06:34:17;;;;;;;;;;;16.40;88.80;;;;;;2063717;28;1312;-59
2021/10/18 06:35:37;;;;;;;;;;;16.40;88.60;;;;;;2069233;28;1437;-57
2021/10/18 06:36:56;;;;;;;;;;;16.40;88.40;;;;;;2070005;28;1141;-59
2021/10/18 06:38:15;;;;;;;;;;;16.40;88.30;;;;;;2072845;28;1220;-57
2021/10/18 06:39:35;;;;;;;;;;;16.40;88.20;;;;;;2063278;28;1124;-57
2021/10/18 06:40:54;;;;;;;;;;;16.40;88.30;;;;;;2067324;28;1539;-57
2021/10/18 06:42:13;;;;;;;;;;;16.40;89.00;;;;;;2072641;28;1274;-57
2021/10/18 06:43:32;;;;;;;;;;;16.40;88.20;;;;;;2072538;28;2029;-60
2021/10/18 06:44:51;;;;;;;;;;;16.40;88.30;;;;;;2063813;28;1489;-59
2021/10/18 06:46:11;;;;;;;;;;;16.40;88.40;;;;;;2063338;28;1164;-57
2021/10/18 06:47:30;;;;;;;;;;;16.40;88.40;;;;;;2067620;28;1289;-59
2021/10/18 06:48:49;;;;;;;;;;;16.40;88.60;;;;;;2070075;28;1327;-60
2021/10/18 06:50:09;;;;;;;;;;;16.40;88.70;;;;;;2072712;28;1390;-59
2021/10/18 06:51:33;;;;;;;;;;;16.40;89.60;;;;;;2071160;28;1276;-58
2021/10/18 06:52:52;;;;;;;;;;;16.40;90.40;;;;;;2063911;28;1446;-57
2021/10/18 06:54:13;;;;;;;;;;;16.40;91.00;;;;;;2068638;28;1015;-59
2021/10/18 06:55:33;;;;;;;;;;;16.50;90.50;;;;;;2071634;28;892;-58
2021/10/18 06:56:52;;;;;;;;;;;16.50;90.50;;;;;;2069821;28;1427;-59
2021/10/18 06:58:12;;;;;;;;;;;16.60;90.40;;;;;;2063989;28;1202;-58
2021/10/18 06:59:32;;;;;;;;;;;16.60;90.30;;;;;;2067393;28;1242;-58
2021/10/18 07:00:52;;;;;;;;;;;16.60;90.30;;;;;;2069436;28;1264;-58
2021/10/18 07:02:11;;;;;;;;;;;16.60;90.30;;;;;;2072241;28;1170;-58
2021/10/18 07:03:30;;;;;;;;;;;16.60;90.30;;;;;;2062741;28;1432;-57
2021/10/18 07:04:49;;;;;;;;;;;16.60;90.30;;;;;;2068910;28;1387;-58
2021/10/18 07:06:09;;;;;;;;;;;16.60;90.30;;;;;;2070328;28;1129;-58
2021/10/18 07:07:28;;;;;;;;;;;16.60;90.50;;;;;;2063295;28;1444;-56
2021/10/18 07:08:47;;;;;;;;;;;16.60;90.20;;;;;;2069290;28;1346;-58
2021/10/18 07:10:07;;;;;;;;;;;16.60;90.20;;;;;;2072138;28;1237;-57
2021/10/18 07:11:26;;;;;;;;;;;16.60;90.20;;;;;;2065563;28;1292;-54
2021/10/18 07:12:45;;;;;;;;;;;16.60;90.20;;;;;;2070924;28;1250;-57
2021/10/18 07:14:05;;;;;;;;;;;16.60;90.20;;;;;;2064801;28;1302;-55
2021/10/18 07:15:24;;;;;;;;;;;16.60;90.40;;;;;;2068859;28;1254;-57
2021/10/18 07:16:43;;;;;;;;;;;16.50;90.30;;;;;;2072856;28;1458;-56
2021/10/18 07:18:03;;;;;;;;;;;16.50;90.40;;;;;;2073971;28;1274;-55
2021/10/18 07:19:22;;;;;;;;;;;16.50;90.50;;;;;;2074427;28;1079;-56
2021/10/18 07:20:42;;;;;;;;;;;16.50;90.50;;;;;;2074159;28;1054;-55
2021/10/18 07:22:01;;;;;;;;;;;16.50;90.60;;;;;;2073180;28;1433;-59
2021/10/18 07:23:20;;;;;;;;;;;16.50;91.00;;;;;;2074291;28;1529;-55
2021/10/18 07:24:39;;;;;;;;;;;16.40;91.00;;;;;;2065233;28;1414;-57
2021/10/18 07:26:01;;;;;;;;;;;16.40;90.80;;;;;;2070826;28;932;-58
2021/10/18 07:27:21;;;;;;;;;;;16.40;90.90;;;;;;2074232;28;1046;-54
2021/10/18 07:28:41;;;;;;;;;;;16.40;90.90;;;;;;2073837;28;1456;-54
2021/10/18 07:30:00;;;;;;;;;;;16.40;91.10;;;;;;2074260;28;1211;-56
2021/10/18 07:31:19;;;;;;;;;;;16.40;91.20;;;;;;2065640;28;1130;-53
2021/10/18 07:32:42;;;;;;;;;;;16.40;91.30;;;;;;2070291;28;1310;-56
2021/10/18 07:34:05;;;;;;;;;;;16.40;91.20;;;;;;2076092;28;1315;-55
2021/10/18 07:35:29;;;;;;;;;;;16.40;91.10;;;;;;2072522;28;1020;-54
2021/10/18 07:36:49;;;;;;;;;;;16.40;91.30;;;;;;2065909;28;1281;-57
2021/10/18 07:38:11;;;;;;;;;;;16.40;91.10;;;;;;2071813;28;1163;-56
2021/10/18 07:39:30;;;;;;;;;;;16.30;90.90;;;;;;2072992;28;1236;-57
2021/10/18 07:40:50;;;;;;;;;;;16.30;91.00;;;;;;2073987;28;1084;-55
2021/10/18 07:42:14;;;;;;;;;;;16.30;91.10;;;;;;2076571;28;1005;-55
2021/10/18 07:43:33;;;;;;;;;;;16.20;91.20;;;;;;2059095;28;1411;-55
2021/10/18 07:44:53;;;;;;;;;;;16.20;91.30;;;;;;2072498;28;1079;-56
2021/10/18 07:46:13;;;;;;;;;;;16.20;91.40;;;;;;2078094;28;835;-57
2021/10/18 07:47:32;;;;;;;;;;;16.20;91.50;;;;;;2077435;28;1124;-56
2021/10/18 07:48:51;;;;;;;;;;;16.20;91.90;;;;;;2078427;28;839;-57
2021/10/18 07:50:10;;;;;;;;;;;16.20;91.60;;;;;;2069787;28;910;-57
2021/10/18 07:51:29;;;;;;;;;;;16.10;92.00;;;;;;2061663;28;972;-57